Allendale, California
Current Conditions -  °F | °C
As of 3:53 AM on Sunday 25 Jan 2015 (Local Time) from KVCB Reporting Station
Moderate Fog Moderate Fog  
Wind Chill: 43°   Ceiling: 200
Heat Index: 43°   Visibility: 0.25mi
Dew Point: 42°   Wind: 0mph
Humidity: 97%   Direction: NA
Pressure: 30.21"   Gusts: NA
Location:  38.4195°N, 122.026°W
Report Text: KVCB 251153Z AUTO 00000KT 1/4SM FG VV002 06/06 A3021 RMK AO2 SLP229 T00610056 10067 20061 50001
Loading
Personal Weather Stations






























Interactive Weather Map New forecast layout! Learn more

10-Day Weather Forecast

Advertisements
Track Severe Weather on mobile